createdAt,value
2017-05-12T00:00:02.475Z,14.0
2017-05-12T00:05:02.728Z,14.0
2017-05-12T00:10:02.408Z,14.0
2017-05-12T00:15:03.051Z,13.8
2017-05-12T00:20:17.670Z,13.8
2017-05-12T00:25:03.262Z,14.0
2017-05-12T00:30:02.868Z,14.3
2017-05-12T00:35:05.553Z,15.0
2017-05-12T00:40:03.527Z,15.0
2017-05-12T00:45:03.206Z,14.8
2017-05-12T00:50:02.752Z,14.8
2017-05-12T00:55:03.392Z,14.6
2017-05-12T01:00:02.980Z,14.8
2017-05-12T01:05:02.769Z,14.8
2017-05-12T01:10:03.384Z,14.8
2017-05-12T01:15:02.936Z,14.8
2017-05-12T01:20:02.531Z,14.6
2017-05-12T01:25:18.220Z,14.8
2017-05-12T01:30:02.743Z,14.6
2017-05-12T01:35:05.401Z,14.6
2017-05-12T01:40:02.970Z,14.5
2017-05-12T01:45:02.601Z,14.5
2017-05-12T01:50:02.445Z,14.5
2017-05-12T01:55:03.318Z,14.5
2017-05-12T02:00:02.873Z,14.5
2017-05-12T02:05:02.459Z,14.5
2017-05-12T02:10:03.178Z,14.5
2017-05-12T02:15:02.930Z,14.5
2017-05-12T02:20:02.726Z,14.5
2017-05-12T02:25:03.361Z,14.3
2017-05-12T02:30:03.273Z,14.3
2017-05-12T02:35:03.016Z,14.5
2017-05-12T02:40:02.747Z,14.5
2017-05-12T02:45:03.403Z,14.5
2017-05-12T02:50:03.015Z,14.5
2017-05-12T02:55:02.765Z,14.5
2017-05-12T03:00:02.466Z,14.6
2017-05-12T03:05:03.091Z,14.5
2017-05-12T03:10:02.718Z,14.5
2017-05-12T03:15:02.433Z,14.5
2017-05-12T03:20:03.131Z,14.3
2017-05-12T03:25:02.868Z,14.3
2017-05-12T03:30:02.498Z,14.5
2017-05-12T03:35:03.265Z,14.5
2017-05-12T03:40:02.983Z,14.5
2017-05-12T03:45:02.563Z,14.5
2017-05-12T03:50:03.216Z,14.5
2017-05-12T03:55:02.831Z,14.5
2017-05-12T04:00:02.381Z,14.5
2017-05-12T04:05:03.138Z,14.5
2017-05-12T04:10:02.946Z,14.5
2017-05-12T04:15:02.718Z,14.5
2017-05-12T04:20:03.331Z,14.5
2017-05-12T04:25:02.930Z,14.5
2017-05-12T04:30:03.131Z,14.5
2017-05-12T04:35:02.857Z,14.5
2017-05-12T04:40:02.601Z,14.5
2017-05-12T04:45:03.332Z,14.5
2017-05-12T04:50:03.099Z,14.5
2017-05-12T04:55:02.836Z,14.5
2017-05-12T05:00:02.504Z,14.6
2017-05-12T05:05:03.113Z,14.8
2017-05-12T05:10:02.847Z,14.8
2017-05-12T05:15:02.445Z,14.8
2017-05-12T05:20:03.185Z,15.0
2017-05-12T05:25:02.928Z,15.1
2017-05-12T05:30:02.675Z,15.1
2017-05-12T05:35:03.260Z,15.1
2017-05-12T05:40:03.076Z,15.1
2017-05-12T05:45:02.807Z,15.3
2017-05-12T05:50:02.492Z,15.3
2017-05-12T05:55:03.118Z,15.5
2017-05-12T06:00:02.737Z,15.6
2017-05-12T06:05:02.468Z,15.5
2017-05-12T06:10:03.265Z,15.6
2017-05-12T06:15:02.898Z,15.6
2017-05-12T06:20:02.478Z,15.5
2017-05-12T06:25:03.164Z,15.5
2017-05-12T06:30:02.795Z,15.6
2017-05-12T06:35:02.530Z,15.6
2017-05-12T06:40:03.358Z,15.8
2017-05-12T06:45:03.043Z,15.8
2017-05-12T06:50:02.616Z,15.5
2017-05-12T06:55:03.304Z,15.5
2017-05-12T07:00:03.018Z,15.5
2017-05-12T07:05:02.692Z,15.5
2017-05-12T07:10:03.418Z,15.3
2017-05-12T07:15:03.157Z,15.6
2017-05-12T07:20:02.761Z,15.8
2017-05-12T07:25:02.401Z,16.0
2017-05-12T07:30:03.142Z,15.8
2017-05-12T07:35:02.834Z,15.8
2017-05-12T07:40:02.551Z,15.6
2017-05-12T07:45:03.272Z,15.8
2017-05-12T07:50:03.045Z,15.6
2017-05-12T07:55:02.633Z,15.8
2017-05-12T08:00:03.349Z,15.8
2017-05-12T08:05:02.958Z,16.2
2017-05-12T08:10:02.637Z,16.2
2017-05-12T08:15:03.329Z,15.8
2017-05-12T08:20:02.998Z,15.8
2017-05-12T08:25:02.756Z,16.0
2017-05-12T08:30:02.534Z,17.1
2017-05-12T08:35:03.197Z,17.3
2017-05-12T08:40:02.922Z,17.8
2017-05-12T08:45:02.639Z,17.8
2017-05-12T08:50:03.372Z,18.7
2017-05-12T08:55:03.220Z,17.3
2017-05-12T09:00:02.819Z,17.3
2017-05-12T09:05:02.422Z,17.7
2017-05-12T09:10:03.132Z,17.7
2017-05-12T09:15:02.812Z,18.1
2017-05-12T09:20:02.652Z,17.7
2017-05-12T09:25:03.416Z,18.1
2017-05-12T09:30:02.959Z,18.8
2017-05-12T09:35:02.569Z,19.7
2017-05-12T09:40:03.234Z,20.2
2017-05-12T09:45:02.880Z,19.7
2017-05-12T09:50:02.663Z,19.5
2017-05-12T09:55:03.366Z,18.5
2017-05-12T10:00:02.948Z,19.7
2017-05-12T10:05:02.698Z,19.7
2017-05-12T10:10:03.291Z,19.7
2017-05-12T10:15:02.884Z,20.0
2017-05-12T10:20:02.679Z,19.1
2017-05-12T10:25:03.353Z,19.0
2017-05-12T10:30:03.119Z,18.6
2017-05-12T10:35:02.798Z,18.2
2017-05-12T10:40:02.998Z,18.2
2017-05-12T10:45:02.671Z,18.5
2017-05-12T10:50:02.421Z,18.5
2017-05-12T10:55:03.018Z,18.2
2017-05-12T11:00:02.904Z,18.2
2017-05-12T11:05:02.602Z,18.1
2017-05-12T11:10:02.775Z,18.2
2017-05-12T11:15:03.045Z,18.5
2017-05-12T11:20:02.783Z,19.0
2017-05-12T11:25:02.464Z,20.2
2017-05-12T11:30:02.621Z,21.2
2017-05-12T11:35:02.497Z,21.5
2017-05-12T11:40:02.536Z,21.5
2017-05-12T11:45:02.671Z,22.6
2017-05-12T11:50:02.459Z,22.7
2017-05-12T11:55:03.312Z,22.7
2017-05-12T12:00:02.497Z,22.7
2017-05-12T12:05:03.327Z,22.5
2017-05-12T12:10:02.942Z,22.5
2017-05-12T12:15:03.460Z,22.3
2017-05-12T12:20:02.750Z,22.7
2017-05-12T12:25:03.140Z,23.3
2017-05-12T12:30:02.514Z,22.7
2017-05-12T12:35:02.549Z,22.3
2017-05-12T12:40:02.711Z,23.7
2017-05-12T12:45:03.134Z,24.0
2017-05-12T12:50:03.364Z,22.6
2017-05-12T12:55:02.657Z,22.5
2017-05-12T13:00:02.916Z,23.0
2017-05-12T13:05:02.704Z,23.2
2017-05-12T13:10:03.395Z,23.8
2017-05-12T13:15:02.901Z,22.7
2017-05-12T13:20:02.848Z,24.2
2017-05-12T13:25:03.393Z,23.7
2017-05-12T13:30:03.339Z,24.6
2017-05-12T13:35:03.394Z,23.6
2017-05-12T13:40:02.414Z,23.7
2017-05-12T13:45:02.706Z,23.3
2017-05-12T13:50:02.925Z,22.7
2017-05-12T13:55:02.902Z,22.7
2017-05-12T14:00:02.878Z,24.3
2017-05-12T14:05:03.191Z,24.7
2017-05-12T14:10:02.753Z,25.5
2017-05-12T14:15:02.733Z,24.7
2017-05-12T14:20:03.234Z,25.0
2017-05-12T14:25:02.827Z,26.2
2017-05-12T14:30:03.228Z,25.7
2017-05-12T14:35:02.753Z,25.2
2017-05-12T14:40:02.978Z,23.2
2017-05-12T14:45:03.286Z,23.8
2017-05-12T14:50:03.143Z,24.8
2017-05-12T14:55:03.011Z,24.7
2017-05-12T15:00:03.077Z,24.2
2017-05-12T15:05:02.803Z,22.7
2017-05-12T15:10:03.182Z,23.2
2017-05-12T15:15:02.558Z,23.8
2017-05-12T15:20:02.896Z,24.3
2017-05-12T15:25:03.363Z,24.3
2017-05-12T15:30:03.259Z,23.7
2017-05-12T15:35:02.814Z,24.2
2017-05-12T15:40:02.684Z,23.7
2017-05-12T15:45:03.168Z,23.3
2017-05-12T15:50:03.126Z,24.5
2017-05-12T15:55:03.342Z,23.1
2017-05-12T16:00:03.021Z,23.0
2017-05-12T16:05:02.474Z,22.7
2017-05-12T16:10:02.527Z,22.7
2017-05-12T16:15:03.292Z,22.5
2017-05-12T16:20:03.077Z,22.7
2017-05-12T16:25:02.985Z,22.5
2017-05-12T16:30:02.996Z,22.5
2017-05-12T16:35:02.585Z,23.2
2017-05-12T16:40:03.340Z,23.3
2017-05-12T16:45:03.022Z,23.2
2017-05-12T16:50:02.703Z,23.3
2017-05-12T16:55:03.319Z,22.5
2017-05-12T17:00:03.017Z,22.5
2017-05-12T17:05:02.637Z,22.2
2017-05-12T17:10:03.366Z,22.0
2017-05-12T17:15:02.946Z,21.8
2017-05-12T17:20:02.571Z,21.8
2017-05-12T17:25:03.145Z,21.7
2017-05-12T17:30:02.909Z,21.6
2017-05-12T17:35:02.577Z,21.6
2017-05-12T17:40:03.333Z,22.6
2017-05-12T17:45:03.000Z,22.3
2017-05-12T17:50:02.620Z,22.3
2017-05-12T17:55:03.374Z,22.0
2017-05-12T18:00:03.058Z,21.7
2017-05-12T18:05:02.659Z,21.6
2017-05-12T18:10:03.340Z,21.5
2017-05-12T18:15:03.143Z,21.2
2017-05-12T18:20:02.997Z,21.2
2017-05-12T18:25:03.059Z,20.8
2017-05-12T18:30:02.790Z,20.8
2017-05-12T18:35:02.602Z,20.7
2017-05-12T18:40:02.512Z,20.7
2017-05-12T18:45:03.381Z,20.7
2017-05-12T18:50:02.536Z,20.7
2017-05-12T18:55:02.454Z,20.7
2017-05-12T19:00:02.772Z,20.6
2017-05-12T19:05:02.530Z,20.2
2017-05-12T19:10:02.457Z,20.2
2017-05-12T19:15:03.088Z,20.2
2017-05-12T19:20:02.775Z,20.2
2017-05-12T19:25:02.460Z,20.1
2017-05-12T19:30:03.243Z,19.7
2017-05-12T19:35:03.047Z,19.2
2017-05-12T19:40:03.028Z,19.2
2017-05-12T19:45:02.836Z,19.2
2017-05-12T19:50:02.477Z,19.2
2017-05-12T19:55:03.396Z,19.2
2017-05-12T20:00:03.023Z,19.1
2017-05-12T20:05:02.738Z,19.1
2017-05-12T20:10:02.539Z,19.0
2017-05-12T20:15:03.332Z,18.6
2017-05-12T20:20:02.998Z,18.2
2017-05-12T20:25:02.726Z,18.1
2017-05-12T20:30:02.428Z,17.8
2017-05-12T20:35:03.029Z,17.7
2017-05-12T20:40:02.661Z,17.7
2017-05-12T20:45:03.304Z,17.5
2017-05-12T20:50:02.938Z,17.3
2017-05-12T20:55:02.637Z,16.7
2017-05-12T21:00:03.475Z,15.5
2017-05-12T21:05:03.048Z,15.5
2017-05-12T21:10:02.790Z,15.1
2017-05-12T21:15:03.361Z,15.1
2017-05-12T21:20:03.086Z,14.6
2017-05-12T21:25:02.708Z,14.3
2017-05-12T21:30:02.672Z,14.1
2017-05-12T21:35:02.445Z,13.8
2017-05-12T21:40:03.177Z,13.6
2017-05-12T21:45:02.894Z,13.6
2017-05-12T21:50:02.632Z,13.6
2017-05-12T21:55:03.327Z,13.5
2017-05-12T22:00:03.039Z,13.3
2017-05-12T22:05:02.682Z,13.3
2017-05-12T22:10:02.439Z,13.3
2017-05-12T22:15:03.123Z,13.1
2017-05-12T22:20:02.959Z,13.1
2017-05-12T22:25:02.697Z,13.1
2017-05-12T22:30:34.374Z,13.1
2017-05-12T22:35:03.048Z,13.1
2017-05-12T22:40:02.844Z,13.1
2017-05-12T22:45:02.603Z,13.1
2017-05-12T22:50:03.277Z,13.3
2017-05-12T22:55:02.794Z,13.1
2017-05-12T23:00:02.480Z,13.1
2017-05-12T23:05:03.252Z,13.1
2017-05-12T23:10:03.177Z,13.1
2017-05-12T23:15:02.892Z,13.1
2017-05-12T23:20:02.643Z,13.1
2017-05-12T23:25:03.446Z,12.8
2017-05-12T23:30:03.026Z,12.8
2017-05-12T23:35:02.803Z,12.8
2017-05-12T23:40:02.443Z,12.8
2017-05-12T23:45:03.207Z,12.6
2017-05-12T23:50:03.014Z,12.6
2017-05-12T23:55:02.718Z,12.5
